Time;durP1;ratioP1;P1;durP2;ratioP2;P2;SDS_P1;SDS_P2;PMS_P1;PMS_P2;Temp;Humidity;BMP_temperature;BMP_pressure;BME280_temperature;BME280_humidity;BME280_pressure;Samples;Min_cycle;Max_cycle;Signal;HPM_P1;HPM_P2
2022/01/09 00:01:16;;;;;;;19.10;10.10;;;;;;;-2.52;65.33;95677.73;107533;1268;43328;-74
2022/01/09 00:03:47;;;;;;;16.90;8.70;;;;;;;-2.52;65.68;95669.28;107538;1268;41907;-74
2022/01/09 00:06:18;;;;;;;20.10;10.30;;;;;;;-2.52;65.61;95662.80;107617;1268;33098;-74
2022/01/09 00:08:49;;;;;;;15.90;6.80;;;;;;;-2.51;65.50;95663.03;107547;1268;48626;-74
2022/01/09 00:11:26;;;;;;;17.40;8.60;;;;;;;-2.51;65.63;95655.92;107538;1268;46509;-74
2022/01/09 00:13:57;;;;;;;15.70;7.50;;;;;;;-2.51;65.64;95657.60;107608;1268;31387;-74
2022/01/09 00:16:28;;;;;;;17.70;8.50;;;;;;;-2.51;65.81;95654.73;107603;1268;44489;-73
2022/01/09 00:18:59;;;;;;;20.80;8.50;;;;;;;-2.51;65.92;95655.40;107534;1268;39882;-73
2022/01/09 00:21:30;;;;;;;14.10;7.30;;;;;;;-2.49;65.94;95654.73;107514;1271;38150;-73
2022/01/09 00:24:01;;;;;;;14.90;8.00;;;;;;;-2.49;66.02;95647.98;107600;1268;32846;-73
2022/01/09 00:26:32;;;;;;;22.10;7.50;;;;;;;-2.47;66.19;95644.97;107618;1268;48864;-73
2022/01/09 00:29:06;;;;;;;15.50;6.90;;;;;;;-2.48;66.36;95641.11;107529;1269;35299;-73
2022/01/09 00:31:37;;;;;;;15.80;7.60;;;;;;;-2.51;66.41;95641.36;107501;1270;43121;-74
2022/01/09 00:34:08;;;;;;;19.30;9.60;;;;;;;-2.56;66.52;95643.77;107606;1268;44210;-74
2022/01/09 00:36:39;;;;;;;16.50;7.50;;;;;;;-2.62;66.95;95643.58;107579;1267;35977;-75
2022/01/09 00:39:10;;;;;;;12.40;6.00;;;;;;;-2.67;66.96;95640.48;107521;1268;45614;-74
2022/01/09 00:41:41;;;;;;;14.40;7.30;;;;;;;-2.61;67.33;95638.77;107627;1268;32334;-74
2022/01/09 00:44:11;;;;;;;10.70;5.40;;;;;;;-2.57;67.16;95639.35;107590;1268;41086;-74
2022/01/09 00:46:42;;;;;;;17.10;8.00;;;;;;;-2.56;67.12;95635.90;107584;1268;33437;-74
2022/01/09 00:49:13;;;;;;;15.30;7.90;;;;;;;-2.58;67.30;95632.73;107491;1270;40137;-74
2022/01/09 00:51:44;;;;;;;16.50;8.30;;;;;;;-2.63;67.31;95623.11;107622;1268;31608;-74
2022/01/09 00:54:15;;;;;;;12.10;7.40;;;;;;;-2.63;67.50;95627.78;107573;1270;42185;-74
2022/01/09 00:56:46;;;;;;;12.90;6.60;;;;;;;-2.67;67.41;95623.35;107497;1270;44200;-74
2022/01/09 00:59:17;;;;;;;13.60;6.20;;;;;;;-2.67;67.47;95617.62;107530;1268;41400;-74
2022/01/09 01:01:48;;;;;;;16.50;7.80;;;;;;;-2.67;67.59;95610.42;107595;1268;46146;-73
2022/01/09 01:04:19;;;;;;;15.30;6.70;;;;;;;-2.71;67.56;95601.16;107568;1267;43368;-74
2022/01/09 01:06:51;;;;;;;9.50;5.30;;;;;;;-2.71;67.80;95595.30;107610;1268;31091;-74
2022/01/09 01:09:23;;;;;;;12.10;5.30;;;;;;;-2.69;67.86;95594.20;107487;1270;41585;-74
2022/01/09 01:11:54;;;;;;;10.80;5.80;;;;;;;-2.69;67.99;95586.41;107560;1268;42911;-74
2022/01/09 01:14:27;;;;;;;10.30;5.70;;;;;;;-2.70;67.88;95588.06;107488;1268;46959;-74
2022/01/09 01:16:58;;;;;;;10.30;5.00;;;;;;;-2.74;67.69;95581.94;107558;1271;42297;-74
2022/01/09 01:19:29;;;;;;;8.80;5.10;;;;;;;-2.73;67.97;95579.73;107468;1270;61460;-73
2022/01/09 01:22:01;;;;;;;11.80;6.10;;;;;;;-2.70;68.06;95574.37;107587;1269;32196;-73
2022/01/09 01:24:35;;;;;;;11.60;6.10;;;;;;;-2.68;68.06;95572.40;107507;1270;32116;-73
2022/01/09 01:27:07;;;;;;;12.30;4.60;;;;;;;-2.62;67.98;95567.25;107610;1270;33575;-73
2022/01/09 01:29:38;;;;;;;12.60;5.50;;;;;;;-2.62;68.16;95565.43;107341;1270;42998;-74
2022/01/09 01:32:10;;;;;;;11.30;5.40;;;;;;;-2.67;68.11;95563.36;107395;1270;42026;-74
2022/01/09 01:34:41;;;;;;;10.50;4.90;;;;;;;-2.71;68.05;95562.51;107565;1270;30475;-74
2022/01/09 01:37:12;;;;;;;14.50;5.50;;;;;;;-2.77;68.18;95564.19;107540;1270;36113;-73
2022/01/09 01:39:43;;;;;;;12.00;5.00;;;;;;;-2.84;68.36;95557.04;107502;1270;31944;-74
2022/01/09 01:42:14;;;;;;;12.80;5.20;;;;;;;-2.88;68.45;95556.46;107401;1270;45953;-73
2022/01/09 01:44:46;;;;;;;11.80;5.80;;;;;;;-2.92;68.59;95553.98;107460;1270;38401;-74
2022/01/09 01:47:19;;;;;;;9.80;5.10;;;;;;;-2.90;68.86;95549.83;107271;1271;48495;-73
2022/01/09 01:49:51;;;;;;;13.20;6.30;;;;;;;-2.84;68.88;95550.14;107328;1270;34869;-74
2022/01/09 01:52:29;;;;;;;13.20;6.30;;;;;;;-2.85;68.80;95551.91;107350;1271;44686;-73
2022/01/09 01:54:59;;;;;;;17.60;6.10;;;;;;;-2.87;68.76;95545.29;107478;1270;37876;-73
2022/01/09 01:57:32;;;;;;;17.50;7.30;;;;;;;-2.82;68.96;95539.67;107417;1270;49945;-74
2022/01/09 02:00:04;;;;;;;10.90;5.90;;;;;;;-2.77;68.99;95542.04;107436;1270;43207;-74
2022/01/09 02:02:34;;;;;;;12.40;5.60;;;;;;;-2.77;68.74;95543.80;107458;1270;44190;-73
2022/01/09 02:05:08;;;;;;;11.00;5.20;;;;;;;-2.82;68.70;95539.60;107591;1270;34773;-73
2022/01/09 02:07:39;;;;;;;12.50;6.70;;;;;;;-2.85;68.84;95539.15;107545;1270;31835;-74
2022/01/09 02:10:11;;;;;;;14.00;6.50;;;;;;;-2.87;69.15;95532.95;107515;1270;29758;-74
2022/01/09 02:12:42;;;;;;;9.50;5.40;;;;;;;-2.85;69.23;95523.75;107468;1270;41111;-74
2022/01/09 02:15:33;;;;;;;11.10;6.60;;;;;;;-2.86;69.14;95523.73;107525;1270;32369;-74
2022/01/09 02:18:06;;;;;;;9.90;5.20;;;;;;;-2.90;69.11;95518.45;107500;1270;43684;-74
2022/01/09 02:20:38;;;;;;;10.00;4.40;;;;;;;-2.90;69.18;95511.17;107518;1270;48288;-73
2022/01/09 02:23:11;;;;;;;12.90;5.70;;;;;;;-2.88;69.21;95511.80;107522;1270;39519;-74
2022/01/09 02:25:43;;;;;;;13.40;5.70;;;;;;;-2.86;69.38;95513.83;107631;1268;38024;-73
2022/01/09 02:28:16;;;;;;;12.70;6.20;;;;;;;-2.88;69.36;95510.15;107535;1270;34811;-74
2022/01/09 02:30:49;;;;;;;19.10;6.00;;;;;;;-2.87;69.37;95508.77;107585;1268;38827;-73
2022/01/09 02:33:20;;;;;;;17.60;7.10;;;;;;;-2.86;69.33;95510.44;107673;1268;43947;-73
2022/01/09 02:35:53;;;;;;;9.90;5.10;;;;;;;-2.91;69.50;95508.16;107550;1268;39547;-73
2022/01/09 02:38:23;;;;;;;8.60;4.60;;;;;;;-2.92;69.70;95507.83;107579;1268;33563;-74
2022/01/09 02:40:55;;;;;;;13.80;7.20;;;;;;;-2.90;69.72;95504.52;107550;1268;43263;-74
2022/01/09 02:43:27;;;;;;;12.30;6.00;;;;;;;-2.85;69.55;95500.02;107540;1268;43586;-74
2022/01/09 02:46:07;;;;;;;17.90;6.40;;;;;;;-2.86;69.55;95498.39;107462;1270;38266;-74
2022/01/09 02:48:39;;;;;;;9.90;5.10;;;;;;;-2.84;69.79;95497.80;107556;1270;39753;-74
2022/01/09 02:51:13;;;;;;;13.60;7.20;;;;;;;-2.80;69.62;95495.17;107601;1268;35536;-74
2022/01/09 02:53:48;;;;;;;15.40;7.40;;;;;;;-2.80;69.51;95496.98;107551;1268;35208;-74
2022/01/09 02:56:19;;;;;;;12.00;5.90;;;;;;;-2.85;69.54;95487.20;107540;1270;42811;-74
2022/01/09 02:58:50;;;;;;;12.30;6.90;;;;;;;-2.89;69.77;95484.52;107528;1268;43739;-74
2022/01/09 03:01:21;;;;;;;9.70;4.60;;;;;;;-2.89;69.81;95484.60;107592;1268;41793;-74
2022/01/09 03:03:51;;;;;;;13.20;6.30;;;;;;;-2.92;70.01;95487.23;107546;1268;35470;-73
2022/01/09 03:06:22;;;;;;;14.20;7.20;;;;;;;-2.93;70.17;95481.51;107600;1268;36653;-73
2022/01/09 03:08:54;;;;;;;11.60;6.90;;;;;;;-2.94;70.35;95481.08;107621;1268;44440;-74
2022/01/09 03:11:25;;;;;;;12.20;5.90;;;;;;;-2.92;70.55;95478.00;107665;1268;39881;-73
2022/01/09 03:13:56;;;;;;;13.00;6.50;;;;;;;-2.97;70.33;95473.73;107555;1268;42729;-74
2022/01/09 03:16:27;;;;;;;12.60;6.40;;;;;;;-3.03;70.48;95469.44;107523;1269;36096;-74
2022/01/09 03:18:57;;;;;;;10.40;6.00;;;;;;;-3.09;70.61;95465.09;107566;1268;44484;-73
2022/01/09 03:21:28;;;;;;;13.00;7.00;;;;;;;-3.13;70.75;95459.42;107500;1270;43178;-74
2022/01/09 03:24:00;;;;;;;16.70;6.80;;;;;;;-3.17;70.67;95458.34;107471;1270;54075;-73
2022/01/09 03:26:30;;;;;;;11.80;7.20;;;;;;;-3.19;70.92;95457.86;107476;1270;37623;-73
2022/01/09 03:29:01;;;;;;;11.10;6.50;;;;;;;-3.22;70.85;95450.69;107386;1270;40879;-73
2022/01/09 03:31:32;;;;;;;14.80;7.30;;;;;;;-3.23;71.05;95449.78;107462;1270;28958;-74
2022/01/09 03:34:03;;;;;;;12.00;5.00;;;;;;;-3.25;71.07;95449.30;107445;1270;46379;-73
2022/01/09 03:36:34;;;;;;;12.60;7.30;;;;;;;-3.26;71.01;95448.30;107557;1270;31339;-73
2022/01/09 03:39:05;;;;;;;13.80;7.30;;;;;;;-3.27;71.21;95450.80;107572;1270;40869;-74
2022/01/09 03:41:36;;;;;;;7.90;4.00;;;;;;;-3.30;71.16;95453.61;107569;1270;38354;-73
2022/01/09 03:44:07;;;;;;;11.40;5.20;;;;;;;-3.28;71.59;95447.52;107544;1270;41475;-73
2022/01/09 03:46:38;;;;;;;11.90;6.00;;;;;;;-3.24;71.80;95444.11;107503;1270;42318;-74
2022/01/09 03:49:09;;;;;;;12.40;6.40;;;;;;;-3.23;71.65;95436.10;107444;1270;36940;-74
2022/01/09 03:51:43;;;;;;;14.00;7.60;;;;;;;-3.25;71.69;95438.41;107360;1270;54517;-74
2022/01/09 03:54:14;;;;;;;13.70;6.60;;;;;;;-3.25;71.60;95436.51;107458;1270;47047;-74
2022/01/09 03:56:45;;;;;;;16.60;7.20;;;;;;;-3.24;71.74;95437.98;107403;1270;46568;-74
2022/01/09 03:59:16;;;;;;;12.60;7.50;;;;;;;-3.22;71.89;95433.19;107441;1270;42607;-74
2022/01/09 04:01:47;;;;;;;12.80;4.20;;;;;;;-3.20;72.00;95430.36;107472;1270;44677;-73
2022/01/09 04:04:18;;;;;;;9.40;5.30;;;;;;;-3.20;72.14;95429.86;107495;1270;42508;-74
2022/01/09 04:06:50;;;;;;;9.60;5.80;;;;;;;-3.21;72.11;95431.56;107465;1270;35114;-73
2022/01/09 04:09:37;;;;;;;9.70;5.00;;;;;;;-3.19;72.31;95421.38;107336;1273;33260;-74
2022/01/09 04:12:15;;;;;;;9.90;5.80;;;;;;;-3.17;72.44;95417.23;107483;1270;42364;-74
2022/01/09 04:14:48;;;;;;;12.10;6.10;;;;;;;-3.17;72.41;95416.91;107416;1270;45359;-74
2022/01/09 04:17:27;;;;;;;13.00;7.00;;;;;;;-3.17;72.35;95412.40;107320;1271;41630;-73
2022/01/09 04:19:58;;;;;;;12.50;6.50;;;;;;;-3.15;72.32;95412.98;107488;1270;43464;-74
2022/01/09 04:22:29;;;;;;;11.80;6.20;;;;;;;-3.17;72.30;95409.83;107475;1270;49864;-73
2022/01/09 04:24:59;;;;;;;15.00;7.50;;;;;;;-3.21;72.46;95413.42;107584;1269;32944;-73
2022/01/09 04:27:30;;;;;;;11.40;6.50;;;;;;;-3.22;72.33;95407.85;107552;1268;48882;-74
2022/01/09 04:30:01;;;;;;;15.50;7.60;;;;;;;-3.25;72.46;95408.55;107561;1268;44221;-74
2022/01/09 04:32:32;;;;;;;14.70;6.90;;;;;;;-3.29;72.22;95410.30;107531;1270;33573;-73
2022/01/09 04:35:04;;;;;;;13.30;6.70;;;;;;;-3.42;72.31;95408.84;107538;1269;33466;-74
2022/01/09 04:37:36;;;;;;;14.50;6.80;;;;;;;-3.52;72.11;95404.98;107631;1268;34690;-73
2022/01/09 04:40:12;;;;;;;15.40;7.30;;;;;;;-3.59;72.23;95408.59;107518;1270;44727;-74
2022/01/09 04:42:45;;;;;;;11.50;6.20;;;;;;;-3.67;72.19;95407.80;107674;1271;34966;-73
2022/01/09 04:45:18;;;;;;;9.80;5.70;;;;;;;-3.72;72.23;95404.67;107533;1271;33933;-74
2022/01/09 04:47:51;;;;;;;9.80;5.60;;;;;;;-3.72;72.63;95408.74;107472;1270;48206;-74
2022/01/09 04:50:25;;;;;;;10.80;5.90;;;;;;;-3.69;72.86;95410.02;107568;1268;37791;-74
2022/01/09 04:53:01;;;;;;;12.40;7.40;;;;;;;-3.67;72.85;95414.32;107620;1268;45579;-73
2022/01/09 04:55:33;;;;;;;11.20;6.10;;;;;;;-3.68;72.74;95417.92;107556;1269;42658;-74
2022/01/09 04:58:04;;;;;;;13.90;6.90;;;;;;;-3.65;72.96;95415.33;107518;1270;45108;-74
2022/01/09 05:00:36;;;;;;;10.30;6.40;;;;;;;-3.68;72.78;95408.61;107654;1271;39061;-74
2022/01/09 05:03:06;;;;;;;9.60;5.70;;;;;;;-3.72;72.66;95412.38;107555;1270;44414;-73
2022/01/09 05:05:37;;;;;;;11.00;6.40;;;;;;;-3.77;72.82;95417.02;107581;1269;29446;-74
2022/01/09 05:08:08;;;;;;;13.40;6.40;;;;;;;-3.81;72.71;95416.73;107530;1271;43244;-74
2022/01/09 05:10:39;;;;;;;13.50;7.70;;;;;;;-3.84;72.92;95416.29;107612;1268;31852;-74
2022/01/09 05:13:10;;;;;;;11.90;6.40;;;;;;;-3.84;73.24;95414.47;107521;1269;43968;-74
2022/01/09 05:15:42;;;;;;;11.20;7.00;;;;;;;-3.82;73.27;95418.26;107514;1270;40976;-74
2022/01/09 05:18:14;;;;;;;12.00;6.80;;;;;;;-3.85;73.23;95420.56;107506;1270;42883;-74
2022/01/09 05:20:46;;;;;;;11.80;6.80;;;;;;;-3.90;73.21;95420.76;107478;1270;43012;-74
2022/01/09 05:23:17;;;;;;;13.00;6.70;;;;;;;-3.92;73.39;95419.82;107505;1271;36655;-73
2022/01/09 05:25:48;;;;;;;12.10;6.80;;;;;;;-3.93;73.31;95423.14;107542;1270;33745;-74
2022/01/09 05:28:18;;;;;;;16.60;7.80;;;;;;;-3.96;73.55;95429.68;107511;1271;44256;-73
2022/01/09 05:30:49;;;;;;;11.80;6.80;;;;;;;-4.00;73.48;95426.15;107484;1270;34186;-74
2022/01/09 05:33:20;;;;;;;12.70;7.50;;;;;;;-4.07;73.71;95422.81;107487;1271;43122;-74
2022/01/09 05:35:51;;;;;;;16.30;6.50;;;;;;;-4.08;73.87;95425.61;107441;1270;39430;-73
2022/01/09 05:38:22;;;;;;;15.50;7.50;;;;;;;-4.09;73.94;95423.80;107528;1270;50074;-74
2022/01/09 05:40:53;;;;;;;15.90;7.70;;;;;;;-4.06;74.24;95422.89;107467;1270;46765;-74
2022/01/09 05:43:24;;;;;;;13.30;6.70;;;;;;;-4.04;74.18;95425.48;107511;1268;39211;-74
2022/01/09 05:45:55;;;;;;;9.30;6.00;;;;;;;-4.03;74.18;95423.49;107596;1270;33118;-73
2022/01/09 05:48:26;;;;;;;16.50;6.80;;;;;;;-4.02;74.30;95428.54;107454;1270;39884;-74
2022/01/09 05:50:57;;;;;;;15.00;7.50;;;;;;;-3.98;74.57;95431.23;107516;1270;50396;-73
2022/01/09 05:53:27;;;;;;;10.20;6.60;;;;;;;-3.92;74.70;95426.19;107583;1268;48211;-74
2022/01/09 05:55:58;;;;;;;13.80;7.10;;;;;;;-3.87;74.86;95421.40;107635;1271;32245;-74
2022/01/09 05:58:29;;;;;;;13.50;6.90;;;;;;;-3.84;74.67;95422.72;107560;1268;47375;-73
2022/01/09 06:01:00;;;;;;;8.20;5.80;;;;;;;-3.81;74.77;95425.73;107611;1268;40790;-73
2022/01/09 06:03:31;;;;;;;14.70;7.40;;;;;;;-3.79;74.72;95423.90;107497;1270;42801;-74
2022/01/09 06:06:02;;;;;;;8.40;5.30;;;;;;;-3.77;74.72;95425.11;107590;1269;31304;-73
2022/01/09 06:08:33;;;;;;;10.90;6.70;;;;;;;-3.72;74.69;95425.84;107574;1269;44929;-73
2022/01/09 06:11:04;;;;;;;14.50;6.80;;;;;;;-3.71;74.78;95426.65;107653;1268;40248;-73
2022/01/09 06:13:35;;;;;;;14.70;8.40;;;;;;;-3.70;74.82;95424.96;107621;1270;33203;-74
2022/01/09 06:16:07;;;;;;;10.80;5.70;;;;;;;-3.69;74.80;95424.36;107636;1268;36138;-73
2022/01/09 06:18:38;;;;;;;16.40;8.60;;;;;;;-3.68;74.78;95419.84;107616;1268;39991;-75
2022/01/09 06:21:09;;;;;;;13.50;7.10;;;;;;;-3.66;74.87;95418.71;107507;1271;51049;-74
2022/01/09 06:23:39;;;;;;;15.10;8.00;;;;;;;-3.64;74.61;95420.54;107538;1270;45637;-74
2022/01/09 06:26:10;;;;;;;13.90;7.20;;;;;;;-3.65;74.75;95428.23;107575;1270;30120;-74
2022/01/09 06:28:41;;;;;;;10.20;5.40;;;;;;;-3.63;74.75;95432.31;107553;1271;50131;-73
2022/01/09 06:31:12;;;;;;;17.40;7.40;;;;;;;-3.63;74.76;95430.36;107568;1270;31086;-74
2022/01/09 06:33:43;;;;;;;11.10;6.90;;;;;;;-3.62;74.80;95430.07;107510;1271;37324;-73
2022/01/09 06:36:13;;;;;;;14.70;7.80;;;;;;;-3.61;74.85;95435.83;107579;1270;44310;-74
2022/01/09 06:38:44;;;;;;;14.50;7.40;;;;;;;-3.62;74.78;95437.07;107566;1270;34588;-73
2022/01/09 06:41:15;;;;;;;14.40;6.70;;;;;;;-3.62;74.77;95435.52;107623;1270;30016;-74
2022/01/09 06:43:46;;;;;;;15.10;7.90;;;;;;;-3.60;74.87;95442.74;107491;1268;41239;-74
2022/01/09 06:46:17;;;;;;;12.10;6.10;;;;;;;-3.62;74.71;95444.77;107553;1270;31705;-74
2022/01/09 06:48:47;;;;;;;11.80;6.00;;;;;;;-3.63;74.81;95445.17;107578;1270;43633;-74
2022/01/09 06:51:18;;;;;;;15.60;8.20;;;;;;;-3.61;74.80;95445.63;107409;1270;42436;-74
2022/01/09 06:53:49;;;;;;;15.80;7.20;;;;;;;-3.62;74.91;95454.57;107426;1270;45138;-74
2022/01/09 06:56:20;;;;;;;14.60;7.40;;;;;;;-3.62;74.92;95445.72;107589;1271;35414;-74
2022/01/09 06:58:51;;;;;;;12.60;7.30;;;;;;;-3.61;74.91;95449.52;107584;1270;30436;-74
2022/01/09 07:01:21;;;;;;;17.00;8.30;;;;;;;-3.59;74.81;95446.83;107554;1269;43345;-74
2022/01/09 07:03:52;;;;;;;11.20;7.20;;;;;;;-3.57;74.80;95444.54;107532;1268;40946;-74
2022/01/09 07:06:23;;;;;;;9.30;5.10;;;;;;;-3.53;75.04;95442.93;107529;1270;49149;-74
2022/01/09 07:08:54;;;;;;;14.30;8.10;;;;;;;-3.47;74.95;95442.32;107446;1270;46670;-74
2022/01/09 07:11:25;;;;;;;13.30;7.40;;;;;;;-3.42;74.97;95442.80;107518;1271;38704;-74
2022/01/09 07:13:56;;;;;;;15.30;8.80;;;;;;;-3.38;74.89;95442.83;107589;1269;34832;-74
2022/01/09 07:16:27;;;;;;;13.90;7.20;;;;;;;-3.33;75.01;95445.91;107571;1271;31146;-73
2022/01/09 07:18:58;;;;;;;13.00;6.30;;;;;;;-3.25;75.01;95446.41;107472;1270;54301;-74
2022/01/09 07:21:28;;;;;;;17.10;8.10;;;;;;;-3.18;75.10;95451.73;107519;1268;38507;-74
2022/01/09 07:23:59;;;;;;;12.60;7.00;;;;;;;-3.12;74.96;95449.60;107625;1268;38580;-74
2022/01/09 07:26:31;;;;;;;17.20;8.70;;;;;;;-3.06;74.83;95450.85;107580;1268;49492;-74
2022/01/09 07:29:01;;;;;;;11.70;6.70;;;;;;;-2.97;74.64;95449.56;107449;1268;37842;-74
2022/01/09 07:31:32;;;;;;;16.60;7.60;;;;;;;-2.89;74.66;95446.70;107594;1269;31525;-74
2022/01/09 07:34:03;;;;;;;10.70;5.90;;;;;;;-2.81;74.56;95442.75;107672;1269;37495;-74
2022/01/09 07:36:34;;;;;;;11.40;6.60;;;;;;;-2.72;74.46;95438.34;107622;1268;39038;-74
2022/01/09 07:39:05;;;;;;;12.30;7.50;;;;;;;-2.62;74.35;95439.94;107648;1270;39136;-74
2022/01/09 07:41:36;;;;;;;14.00;8.30;;;;;;;-2.50;74.22;95439.12;107702;1271;36925;-74
2022/01/09 07:44:08;;;;;;;15.10;6.40;;;;;;;-2.38;74.20;95434.73;107659;1268;33436;-74
2022/01/09 07:46:39;;;;;;;13.90;6.90;;;;;;;-2.31;73.88;95431.04;107615;1270;40202;-74
2022/01/09 07:49:10;;;;;;;13.70;7.30;;;;;;;-2.16;73.67;95432.20;107478;1270;44126;-75
2022/01/09 07:51:42;;;;;;;14.40;6.80;;;;;;;-1.82;73.31;95426.55;107534;1270;42168;-75
2022/01/09 07:54:13;;;;;;;12.00;5.60;;;;;;;-1.56;72.75;95422.88;107442;1270;47170;-74
2022/01/09 07:56:44;;;;;;;11.70;5.80;;;;;;;-1.34;71.92;95424.06;107541;1268;45988;-74
2022/01/09 07:59:15;;;;;;;12.00;6.30;;;;;;;-1.16;71.49;95422.49;107565;1271;36816;-74
2022/01/09 08:01:46;;;;;;;13.70;6.40;;;;;;;-1.21;71.00;95426.84;107524;1270;38430;-74
2022/01/09 08:04:17;;;;;;;16.60;7.80;;;;;;;-1.16;70.55;95425.81;107488;1271;59074;-74
2022/01/09 08:06:48;;;;;;;14.60;8.80;;;;;;;-1.14;70.68;95426.52;107520;1270;35139;-74
2022/01/09 08:09:19;;;;;;;15.70;8.30;;;;;;;-1.06;70.70;95426.42;107473;1270;46961;-74
2022/01/09 08:11:50;;;;;;;14.10;7.80;;;;;;;-1.05;69.98;95418.59;107529;1268;43375;-74
2022/01/09 08:14:21;;;;;;;13.50;8.60;;;;;;;-1.06;70.07;95422.42;107564;1271;42856;-74
2022/01/09 08:16:52;;;;;;;13.40;8.00;;;;;;;-0.73;70.41;95420.57;107607;1269;48411;-74
2022/01/09 08:19:23;;;;;;;12.40;7.50;;;;;;;-0.31;69.98;95419.17;107569;1268;45848;-74
2022/01/09 08:21:55;;;;;;;13.60;7.70;;;;;;;-0.02;69.26;95415.16;107573;1271;37017;-74
2022/01/09 08:24:26;;;;;;;15.20;8.00;;;;;;;0.16;68.76;95414.96;107570;1270;36150;-74
2022/01/09 08:26:57;;;;;;;14.60;6.50;;;;;;;0.30;68.45;95415.73;107557;1271;41285;-74
2022/01/09 08:29:28;;;;;;;12.50;6.90;;;;;;;0.34;67.81;95410.66;107589;1269;32950;-75
2022/01/09 08:31:59;;;;;;;12.30;7.30;;;;;;;0.35;67.30;95409.62;107546;1269;37588;-75
2022/01/09 08:34:30;;;;;;;13.60;7.60;;;;;;;0.33;66.81;95402.62;107602;1269;37707;-74
2022/01/09 08:37:01;;;;;;;14.10;7.60;;;;;;;0.31;67.27;95402.70;107561;1271;48777;-74
2022/01/09 08:39:32;;;;;;;15.30;7.40;;;;;;;0.28;66.47;95401.10;107564;1270;34443;-74
2022/01/09 08:42:03;;;;;;;13.90;8.70;;;;;;;0.25;66.60;95397.35;107522;1271;41231;-74
2022/01/09 08:44:34;;;;;;;14.40;8.60;;;;;;;0.29;66.38;95398.61;107558;1271;32542;-74
2022/01/09 08:47:05;;;;;;;11.80;6.90;;;;;;;0.30;66.34;95403.52;107648;1269;38701;-74
2022/01/09 08:49:36;;;;;;;14.70;7.80;;;;;;;0.24;65.94;95402.92;107598;1268;41645;-74
2022/01/09 08:52:08;;;;;;;14.10;9.10;;;;;;;0.23;65.98;95405.05;107596;1271;42486;-74
2022/01/09 08:54:39;;;;;;;18.10;8.50;;;;;;;0.28;65.87;95400.00;107513;1268;42259;-75
2022/01/09 08:57:10;;;;;;;17.20;8.40;;;;;;;0.38;65.72;95399.08;107503;1268;45016;-75
2022/01/09 08:59:41;;;;;;;15.40;8.50;;;;;;;0.37;65.37;95395.62;107514;1271;37567;-74
2022/01/09 09:02:15;;;;;;;14.70;8.30;;;;;;;0.39;65.54;95393.50;107528;1270;42638;-74
2022/01/09 09:04:46;;;;;;;15.00;8.70;;;;;;;0.39;65.32;95389.64;107524;1271;42327;-75
2022/01/09 09:07:23;;;;;;;14.40;7.70;;;;;;;0.32;65.01;95397.09;107573;1271;41029;-74
2022/01/09 09:09:55;;;;;;;13.60;9.10;;;;;;;0.31;65.10;95393.00;107549;1271;42264;-74
2022/01/09 09:12:27;;;;;;;15.90;8.90;;;;;;;0.27;64.85;95388.94;107547;1271;39551;-74
2022/01/09 09:14:58;;;;;;;15.40;7.90;;;;;;;0.28;64.98;95386.88;107532;1271;42938;-74
2022/01/09 09:17:29;;;;;;;15.30;8.40;;;;;;;0.32;64.67;95386.70;107579;1268;40173;-74
2022/01/09 09:20:00;;;;;;;14.90;7.50;;;;;;;0.33;65.30;95384.48;107575;1271;33558;-74
2022/01/09 09:22:31;;;;;;;14.70;7.10;;;;;;;0.42;64.97;95383.89;107606;1271;38478;-73
2022/01/09 09:25:02;;;;;;;13.40;7.60;;;;;;;0.44;64.18;95384.08;107573;1268;35750;-73
2022/01/09 09:27:33;;;;;;;13.60;7.70;;;;;;;0.44;64.35;95382.20;107587;1271;37996;-73
2022/01/09 09:30:07;;;;;;;15.30;8.10;;;;;;;0.49;64.21;95381.27;107656;1271;32049;-73
2022/01/09 09:32:39;;;;;;;16.70;8.30;;;;;;;0.52;64.17;95385.09;107617;1271;32935;-73
2022/01/09 09:35:11;;;;;;;13.50;7.80;;;;;;;0.58;63.93;95378.54;107614;1268;49134;-74
2022/01/09 09:37:42;;;;;;;14.00;7.10;;;;;;;0.67;63.88;95381.48;107585;1271;31593;-73
2022/01/09 09:40:14;;;;;;;14.70;7.90;;;;;;;0.72;63.35;95378.11;107589;1271;40552;-73
2022/01/09 09:42:45;;;;;;;12.90;7.90;;;;;;;0.76;63.40;95381.75;107560;1269;40374;-74
2022/01/09 09:45:16;;;;;;;15.30;7.60;;;;;;;0.87;63.31;95379.50;107575;1269;33512;-73
2022/01/09 09:47:48;;;;;;;11.30;6.70;;;;;;;0.95;63.06;95384.84;107573;1271;31322;-73
2022/01/09 09:50:20;;;;;;;14.50;7.40;;;;;;;1.00;62.75;95382.54;107598;1268;36392;-73
2022/01/09 09:52:52;;;;;;;11.90;6.50;;;;;;;1.07;63.06;95379.38;107543;1271;31396;-73
2022/01/09 09:55:23;;;;;;;12.20;6.70;;;;;;;1.15;62.77;95380.28;107622;1268;36575;-73
2022/01/09 09:57:54;;;;;;;14.70;7.70;;;;;;;1.32;63.11;95384.52;107547;1271;38162;-73
2022/01/09 10:00:25;;;;;;;15.00;7.50;;;;;;;1.42;62.51;95385.50;107464;1271;41126;-73
2022/01/09 10:02:58;;;;;;;11.30;5.90;;;;;;;1.47;62.25;95387.41;107523;1271;40561;-73
2022/01/09 10:05:35;;;;;;;14.60;7.10;;;;;;;1.46;61.94;95392.84;107546;1271;41700;-73
2022/01/09 10:08:12;;;;;;;12.50;6.00;;;;;;;1.49;61.74;95395.98;107614;1271;33207;-73
2022/01/09 10:10:45;;;;;;;13.40;6.00;;;;;;;1.58;61.87;95391.45;107527;1271;36969;-73
2022/01/09 10:13:18;;;;;;;10.90;5.60;;;;;;;1.63;61.03;95394.52;107536;1270;37668;-73
2022/01/09 10:15:53;;;;;;;13.50;7.20;;;;;;;1.62;60.78;95392.80;107622;1269;37138;-73
2022/01/09 10:18:44;;;;;;;12.00;6.90;;;;;;;1.67;60.55;95391.92;107592;1268;35339;-73
2022/01/09 10:21:18;;;;;;;12.40;7.20;;;;;;;1.66;60.54;95387.27;107532;1269;41437;-73
2022/01/09 10:24:03;;;;;;;13.00;6.80;;;;;;;1.66;60.21;95387.58;107489;1268;42099;-73
2022/01/09 10:26:36;;;;;;;11.10;6.90;;;;;;;1.68;60.32;95385.72;107673;1268;37221;-74
2022/01/09 10:29:09;;;;;;;12.80;6.40;;;;;;;1.82;60.42;95382.88;107708;1269;36578;-73
2022/01/09 10:31:45;;;;;;;12.40;6.60;;;;;;;1.89;59.85;95385.48;107571;1268;35949;-74
2022/01/09 10:34:17;;;;;;;11.90;6.40;;;;;;;1.89;59.66;95379.20;107616;1268;29991;-73
2022/01/09 10:36:51;;;;;;;10.40;5.60;;;;;;;1.96;59.56;95381.79;107608;1268;34132;-73
2022/01/09 10:39:31;;;;;;;12.00;6.20;;;;;;;1.96;59.38;95384.67;107623;1268;35346;-73
2022/01/09 10:42:04;;;;;;;11.40;5.90;;;;;;;1.95;59.02;95380.17;107701;1268;41148;-73
2022/01/09 10:44:38;;;;;;;12.10;6.80;;;;;;;1.99;58.75;95375.88;107606;1271;39763;-73
2022/01/09 10:47:14;;;;;;;11.30;5.90;;;;;;;2.03;59.05;95371.76;107636;1268;32743;-73
2022/01/09 10:49:48;;;;;;;9.10;5.30;;;;;;;2.16;58.93;95367.94;107564;1268;31814;-73
2022/01/09 10:52:22;;;;;;;10.60;5.40;;;;;;;2.25;58.53;95366.73;107612;1271;42347;-73
2022/01/09 10:54:55;;;;;;;10.70;4.60;;;;;;;2.38;58.22;95362.22;107615;1268;37942;-73
2022/01/09 10:57:28;;;;;;;9.20;4.90;;;;;;;2.42;57.62;95363.30;107594;1268;61582;-73
2022/01/09 11:00:09;;;;;;;7.50;4.00;;;;;;;2.38;57.19;95364.73;107516;1271;38169;-72
2022/01/09 11:02:40;;;;;;;8.20;4.50;;;;;;;2.21;56.77;95363.10;107540;1271;32114;-74
2022/01/09 11:05:11;;;;;;;11.60;5.20;;;;;;;2.13;56.86;95365.64;107511;1271;41979;-73
2022/01/09 11:07:45;;;;;;;7.80;4.90;;;;;;;2.09;56.64;95366.33;107502;1270;40823;-73
2022/01/09 11:10:18;;;;;;;7.80;4.70;;;;;;;2.07;56.78;95364.65;107633;1269;39667;-73
2022/01/09 11:12:50;;;;;;;8.70;4.50;;;;;;;2.13;56.85;95367.63;107530;1271;33506;-73
2022/01/09 11:15:22;;;;;;;9.80;5.40;;;;;;;2.13;56.62;95364.44;107608;1268;33303;-73
2022/01/09 11:17:55;;;;;;;12.20;5.10;;;;;;;2.10;56.21;95362.22;107589;1268;31820;-73
2022/01/09 11:20:27;;;;;;;8.30;4.30;;;;;;;2.07;56.27;95359.02;107501;1271;35211;-73
2022/01/09 11:23:03;;;;;;;8.20;4.50;;;;;;;2.07;55.75;95357.92;107581;1268;34410;-73
2022/01/09 11:25:40;;;;;;;10.00;5.70;;;;;;;2.06;55.63;95355.82;107538;1271;39061;-73
2022/01/09 11:28:18;;;;;;;8.50;4.60;;;;;;;2.09;55.83;95348.46;107484;1271;44822;-73
2022/01/09 11:31:06;;;;;;;11.20;5.70;;;;;;;2.11;55.38;95348.72;107549;1268;33368;-73
2022/01/09 11:34:00;;;;;;;10.90;5.20;;;;;;;2.12;55.27;95346.14;107618;1268;45791;-73
2022/01/09 11:36:38;;;;;;;8.40;4.70;;;;;;;2.13;55.52;95346.87;107578;1268;38135;-73
2022/01/09 11:39:13;;;;;;;10.80;5.60;;;;;;;2.19;55.78;95351.59;107610;1268;32488;-73
2022/01/09 11:41:46;;;;;;;10.10;5.00;;;;;;;2.22;55.31;95352.64;107634;1268;33464;-73